createdAt,value
2022-11-07T00:01:22.083Z,18.50
2022-11-07T00:03:49.167Z,2.60
2022-11-07T00:06:16.059Z,2.60
2022-11-07T00:08:42.759Z,5.10
2022-11-07T00:11:09.669Z,4.70
2022-11-07T00:13:36.582Z,4.20
2022-11-07T00:16:08.126Z,3.50
2022-11-07T00:18:35.675Z,7.00
2022-11-07T00:21:03.803Z,8.20
2022-11-07T00:23:30.571Z,9.20
2022-11-07T00:26:14.617Z,9.30
2022-11-07T00:28:43.277Z,11.20
2022-11-07T00:31:12.528Z,12.50
2022-11-07T00:33:39.684Z,12.80
2022-11-07T00:36:07.175Z,14.10
2022-11-07T00:38:33.993Z,13.90
2022-11-07T00:41:03.154Z,13.20
2022-11-07T00:43:30.622Z,13.10
2022-11-07T00:45:57.976Z,14.20
2022-11-07T00:48:24.684Z,14.30
2022-11-07T00:50:51.415Z,14.80
2022-11-07T00:53:18.299Z,14.50
2022-11-07T00:55:45.370Z,15.00
2022-11-07T00:58:14.156Z,15.30
2022-11-07T01:00:41.604Z,15.80
2022-11-07T01:03:26.860Z,15.80
2022-11-07T01:05:58.394Z,16.50
2022-11-07T01:08:25.491Z,16.60
2022-11-07T01:10:52.375Z,17.50
2022-11-07T01:13:19.432Z,18.50
2022-11-07T01:15:46.145Z,17.30
2022-11-07T01:18:13.460Z,18.50
2022-11-07T01:20:41.124Z,16.90
2022-11-07T01:23:08.372Z,19.80
2022-11-07T01:25:38.877Z,19.70
2022-11-07T01:28:06.894Z,19.80
2022-11-07T01:30:34.071Z,20.20
2022-11-07T01:33:01.179Z,20.60
2022-11-07T01:35:28.151Z,20.90
2022-11-07T01:37:54.862Z,20.50
2022-11-07T01:40:21.754Z,20.40
2022-11-07T01:42:48.451Z,21.80
2022-11-07T01:45:29.661Z,22.80
2022-11-07T01:48:00.539Z,23.20
2022-11-07T01:50:27.865Z,24.00
2022-11-07T01:52:56.203Z,23.40
2022-11-07T01:55:29.086Z,25.30
2022-11-07T01:58:08.257Z,26.50
2022-11-07T02:00:37.120Z,27.40
2022-11-07T02:03:13.305Z,26.40
2022-11-07T02:05:57.301Z,26.80
2022-11-07T02:08:24.711Z,26.90
2022-11-07T02:10:53.246Z,27.10
2022-11-07T02:13:28.609Z,27.10
2022-11-07T02:15:56.007Z,27.50
2022-11-07T02:18:23.408Z,27.50
2022-11-07T02:20:52.088Z,27.50
2022-11-07T02:23:44.938Z,29.10
2022-11-07T02:26:12.567Z,29.70
2022-11-07T02:28:40.852Z,31.70
2022-11-07T02:31:07.701Z,31.50
2022-11-07T02:33:34.459Z,26.50
2022-11-07T02:36:01.927Z,26.20
2022-11-07T02:38:32.571Z,29.50
2022-11-07T02:41:11.739Z,29.60
2022-11-07T02:43:42.250Z,30.00
2022-11-07T02:46:10.763Z,30.80
2022-11-07T02:48:55.723Z,32.40
2022-11-07T02:51:22.909Z,33.00
2022-11-07T02:53:49.694Z,34.50
2022-11-07T02:56:16.800Z,33.60
2022-11-07T02:58:43.569Z,33.80
2022-11-07T03:01:12.220Z,34.40
2022-11-07T03:03:47.459Z,34.70
2022-11-07T03:06:16.701Z,33.20
2022-11-07T03:08:43.444Z,32.80
2022-11-07T03:11:11.400Z,32.90
2022-11-07T03:13:38.500Z,33.70
2022-11-07T03:16:10.926Z,35.30
2022-11-07T03:18:37.687Z,38.10
2022-11-07T03:21:05.496Z,39.00
2022-11-07T03:23:33.547Z,41.90
2022-11-07T03:26:00.397Z,44.40
2022-11-07T03:28:27.108Z,44.70
2022-11-07T03:30:53.980Z,46.50
2022-11-07T03:33:20.892Z,45.30
2022-11-07T03:35:47.634Z,44.30
2022-11-07T03:38:14.373Z,45.00
2022-11-07T03:40:41.140Z,48.80
2022-11-07T03:43:07.870Z,46.30
2022-11-07T03:45:34.555Z,48.60
2022-11-07T03:48:01.245Z,49.80
2022-11-07T03:50:28.165Z,48.60
2022-11-07T03:52:54.986Z,47.20
2022-11-07T03:55:21.774Z,46.40
2022-11-07T03:57:48.479Z,49.30
2022-11-07T04:00:16.200Z,47.20
2022-11-07T04:02:43.756Z,47.40
2022-11-07T04:05:11.248Z,47.10
2022-11-07T04:07:37.982Z,47.80
2022-11-07T04:10:04.971Z,46.10
2022-11-07T04:12:50.463Z,47.30
2022-11-07T04:15:35.966Z,47.00
2022-11-07T04:18:02.714Z,45.20
2022-11-07T04:20:29.695Z,44.40
2022-11-07T04:22:56.371Z,45.50
2022-11-07T04:25:43.035Z,59.40
2022-11-07T04:28:09.715Z,45.40
2022-11-07T04:30:36.408Z,46.10
2022-11-07T04:33:03.224Z,46.80
2022-11-07T04:35:32.612Z,47.00
2022-11-07T04:38:00.713Z,45.90
2022-11-07T04:40:28.835Z,46.10
2022-11-07T04:42:55.917Z,45.80
2022-11-07T04:45:23.289Z,43.30
2022-11-07T04:47:50.119Z,42.50
2022-11-07T04:50:18.605Z,47.00
2022-11-07T04:52:47.403Z,48.30
2022-11-07T04:55:21.029Z,48.70
2022-11-07T04:57:48.279Z,49.30
2022-11-07T05:00:16.542Z,48.90
2022-11-07T05:02:43.303Z,49.70
2022-11-07T05:05:10.923Z,47.60
2022-11-07T05:07:38.591Z,48.70
2022-11-07T05:10:10.992Z,47.40
2022-11-07T05:12:39.009Z,47.00
2022-11-07T05:15:06.285Z,46.30
2022-11-07T05:17:32.977Z,47.60
2022-11-07T05:19:59.696Z,47.50
2022-11-07T05:22:44.929Z,47.20
2022-11-07T05:25:11.669Z,48.80
2022-11-07T05:27:38.361Z,47.60
2022-11-07T05:30:06.072Z,49.30
2022-11-07T05:32:38.075Z,48.90
2022-11-07T05:35:05.354Z,50.20
2022-11-07T05:37:32.081Z,50.70
2022-11-07T05:39:58.821Z,50.60
2022-11-07T05:42:26.027Z,50.10
2022-11-07T05:44:52.869Z,45.20
2022-11-07T05:47:19.649Z,50.10
2022-11-07T05:49:46.531Z,47.20
2022-11-07T05:52:13.254Z,45.40
2022-11-07T05:54:40.013Z,49.20
2022-11-07T05:57:06.684Z,51.40
2022-11-07T05:59:33.392Z,51.60
2022-11-07T06:02:00.218Z,52.10
2022-11-07T06:04:26.929Z,52.50
2022-11-07T06:06:53.613Z,51.30
2022-11-07T06:09:20.374Z,51.60
2022-11-07T06:11:47.060Z,50.90
2022-11-07T06:14:13.866Z,51.20
2022-11-07T06:16:40.540Z,51.20
2022-11-07T06:19:07.248Z,51.30
2022-11-07T06:21:34.946Z,52.20
2022-11-07T06:24:01.863Z,52.00
2022-11-07T06:26:28.799Z,50.00
2022-11-07T06:28:55.525Z,50.10
2022-11-07T06:31:22.276Z,50.10
2022-11-07T06:33:52.128Z,50.90
2022-11-07T06:36:19.055Z,49.80
2022-11-07T06:38:45.756Z,48.60
2022-11-07T06:41:14.523Z,49.70
2022-11-07T06:43:41.444Z,48.40
2022-11-07T06:46:12.019Z,48.40
2022-11-07T06:48:42.159Z,49.50
2022-11-07T06:51:13.314Z,43.00
2022-11-07T06:53:40.171Z,48.50
2022-11-07T06:56:10.056Z,46.50
2022-11-07T06:58:36.892Z,47.70
2022-11-07T07:01:06.572Z,48.10
2022-11-07T07:03:34.122Z,48.50
2022-11-07T07:06:06.404Z,39.30
2022-11-07T07:08:34.414Z,49.70
2022-11-07T07:11:06.433Z,48.10
2022-11-07T07:13:33.293Z,47.40
2022-11-07T07:16:00.173Z,41.20
2022-11-07T07:18:27.125Z,43.20
2022-11-07T07:21:04.879Z,40.80
2022-11-07T07:23:33.169Z,42.30
2022-11-07T07:26:00.221Z,40.90
2022-11-07T07:28:26.918Z,40.20
2022-11-07T07:30:53.998Z,41.60
2022-11-07T07:33:21.412Z,39.80
2022-11-07T07:35:48.182Z,39.50
2022-11-07T07:38:14.881Z,38.00
2022-11-07T07:40:41.615Z,35.50
2022-11-07T07:43:08.302Z,34.60
2022-11-07T07:45:35.010Z,34.50
2022-11-07T07:48:02.740Z,34.80
2022-11-07T07:50:29.541Z,31.70
2022-11-07T07:52:57.625Z,35.50
2022-11-07T07:55:25.058Z,31.40
2022-11-07T07:57:51.827Z,32.40
2022-11-07T08:00:18.895Z,33.20
2022-11-07T08:02:45.655Z,29.50
2022-11-07T08:05:13.853Z,30.20
2022-11-07T08:07:50.658Z,30.00
2022-11-07T08:13:09.602Z,30.00
2022-11-07T08:15:36.259Z,48.50
2022-11-07T08:18:04.643Z,28.30
2022-11-07T08:20:31.621Z,26.40
2022-11-07T08:23:11.247Z,25.60
2022-11-07T08:25:43.021Z,25.10
2022-11-07T08:28:09.822Z,25.90
2022-11-07T08:30:36.590Z,24.70
2022-11-07T08:33:04.037Z,26.20
2022-11-07T08:35:31.714Z,25.50
2022-11-07T08:37:59.270Z,24.40
2022-11-07T08:40:26.916Z,23.90
2022-11-07T08:42:58.223Z,21.80
2022-11-07T08:45:24.928Z,21.70
2022-11-07T08:47:58.754Z,19.80
2022-11-07T08:50:26.811Z,20.30
2022-11-07T08:52:58.185Z,21.00
2022-11-07T08:55:28.074Z,18.70
2022-11-07T08:58:06.684Z,17.80
2022-11-07T09:00:34.899Z,15.30
2022-11-07T09:05:53.120Z,15.10
2022-11-07T09:08:19.873Z,13.00
2022-11-07T09:10:46.594Z,11.50
2022-11-07T09:13:15.157Z,26.30
2022-11-07T09:15:47.731Z,5.90
2022-11-07T09:18:17.285Z,8.40
2022-11-07T09:20:44.321Z,5.30
2022-11-07T09:23:11.065Z,4.70
2022-11-07T09:25:37.748Z,4.00
2022-11-07T09:28:04.809Z,1.00
2022-11-07T09:30:32.047Z,1.00
2022-11-07T09:32:58.957Z,1.00
2022-11-07T09:35:26.539Z,1.00
2022-11-07T09:37:53.360Z,1.00
2022-11-07T09:40:20.064Z,1.00
2022-11-07T09:43:12.093Z,1.00
2022-11-07T09:46:22.692Z,1.00
2022-11-07T09:49:01.598Z,1.00
2022-11-07T09:51:35.899Z,1.00
2022-11-07T09:54:21.566Z,1.00
2022-11-07T09:56:48.401Z,1.00
2022-11-07T09:59:22.816Z,1.00
2022-11-07T10:01:49.694Z,1.00
2022-11-07T10:04:27.284Z,1.00
2022-11-07T10:06:57.004Z,1.00
2022-11-07T10:09:54.659Z,1.00
2022-11-07T10:12:45.268Z,1.00
2022-11-07T10:15:24.912Z,1.00
2022-11-07T10:17:54.417Z,1.00
2022-11-07T10:20:36.128Z,1.00
2022-11-07T10:23:24.103Z,1.00
2022-11-07T10:25:59.263Z,1.00
2022-11-07T10:28:29.251Z,1.00
2022-11-07T10:31:00.355Z,1.00
2022-11-07T10:33:32.859Z,1.00
2022-11-07T10:36:07.689Z,1.00
2022-11-07T10:38:35.790Z,1.00
2022-11-07T10:41:02.703Z,1.00
2022-11-07T10:43:36.278Z,1.00
2022-11-07T10:46:07.153Z,1.00
2022-11-07T10:48:34.676Z,1.00
2022-11-07T10:51:01.473Z,1.00
2022-11-07T10:53:28.700Z,1.00
2022-11-07T10:55:56.188Z,1.00
2022-11-07T10:58:30.051Z,1.00
2022-11-07T11:01:08.139Z,1.00
2022-11-07T11:03:44.690Z,1.00
2022-11-07T11:06:20.210Z,1.00
2022-11-07T11:08:48.811Z,1.00
2022-11-07T11:11:21.812Z,1.00
2022-11-07T11:13:49.050Z,1.00
2022-11-07T11:16:22.878Z,1.00
2022-11-07T11:18:56.100Z,1.00
2022-11-07T11:21:23.916Z,1.00
2022-11-07T11:23:52.044Z,1.00
2022-11-07T11:26:38.192Z,1.00
2022-11-07T11:29:13.378Z,1.00
2022-11-07T11:31:49.115Z,1.00
2022-11-07T11:34:27.837Z,1.00
2022-11-07T11:37:04.179Z,1.00
2022-11-07T11:39:59.380Z,1.00
2022-11-07T11:43:07.766Z,1.00
2022-11-07T11:45:51.330Z,1.00
2022-11-07T11:48:51.678Z,1.00
2022-11-07T11:51:41.963Z,1.00
2022-11-07T11:54:10.857Z,1.00
2022-11-07T11:56:43.662Z,1.00
2022-11-07T11:59:30.228Z,1.00
2022-11-07T12:02:26.740Z,1.00
2022-11-07T12:05:08.586Z,1.00
2022-11-07T12:07:49.792Z,1.00
2022-11-07T12:10:29.275Z,1.00
2022-11-07T12:13:24.279Z,1.00
2022-11-07T12:16:38.434Z,1.00
2022-11-07T12:19:36.246Z,1.00
2022-11-07T12:22:17.140Z,1.00
2022-11-07T12:25:19.916Z,1.00
2022-11-07T12:28:12.526Z,1.00
2022-11-07T12:31:06.471Z,1.00
2022-11-07T12:33:41.288Z,1.00
2022-11-07T12:36:22.256Z,1.00
2022-11-07T12:39:11.840Z,1.00
2022-11-07T12:41:53.764Z,1.00
2022-11-07T12:44:38.765Z,2.40
2022-11-07T12:47:47.169Z,5.90
2022-11-07T12:50:32.528Z,15.50
2022-11-07T12:53:13.858Z,38.60
2022-11-07T12:55:42.674Z,80.50
2022-11-07T12:58:24.368Z,99.90
2022-11-07T13:00:52.430Z,99.80
2022-11-07T13:03:52.882Z,99.90
2022-11-07T13:06:42.084Z,99.90
2022-11-07T13:09:30.747Z,99.90
2022-11-07T13:12:29.378Z,99.90
2022-11-07T13:14:57.062Z,97.90
2022-11-07T13:17:30.489Z,99.10
2022-11-07T13:20:02.192Z,99.90
2022-11-07T13:22:40.954Z,99.90
2022-11-07T13:25:15.033Z,99.90
2022-11-07T13:27:55.491Z,99.90
2022-11-07T13:30:31.643Z,99.90
2022-11-07T13:33:00.459Z,99.90
2022-11-07T13:35:37.518Z,99.90
2022-11-07T13:38:10.100Z,99.90
2022-11-07T13:40:58.660Z,99.90
2022-11-07T13:43:39.056Z,99.90
2022-11-07T13:46:17.932Z,99.90
2022-11-07T13:49:13.318Z,99.90
2022-11-07T13:51:43.216Z,99.90
2022-11-07T13:54:34.562Z,99.90
2022-11-07T13:57:20.455Z,99.90
2022-11-07T14:00:14.238Z,99.90
2022-11-07T14:02:50.345Z,99.90
2022-11-07T14:05:18.345Z,99.90
2022-11-07T14:07:52.185Z,99.90
2022-11-07T14:10:47.022Z,99.90
2022-11-07T14:13:40.646Z,99.90
2022-11-07T14:16:23.052Z,99.90
2022-11-07T14:19:14.570Z,99.90
2022-11-07T14:21:45.293Z,99.90
2022-11-07T14:24:22.557Z,99.90
2022-11-07T14:27:07.293Z,99.90
2022-11-07T14:29:34.601Z,99.90
2022-11-07T14:32:04.212Z,99.90
2022-11-07T14:34:34.301Z,99.70
2022-11-07T14:37:05.632Z,99.30
2022-11-07T14:39:33.297Z,99.90
2022-11-07T14:42:04.088Z,99.40
2022-11-07T14:44:54.822Z,97.70
2022-11-07T14:47:25.479Z,98.30
2022-11-07T14:49:53.119Z,97.80
2022-11-07T14:52:22.681Z,97.80
2022-11-07T14:54:53.713Z,98.00
2022-11-07T14:57:21.074Z,94.80
2022-11-07T14:59:47.840Z,95.20
2022-11-07T15:02:24.052Z,94.60
2022-11-07T15:04:51.042Z,93.50
2022-11-07T15:07:29.468Z,93.80
2022-11-07T15:09:59.434Z,92.30
2022-11-07T15:12:28.286Z,90.80
2022-11-07T15:15:19.650Z,90.50
2022-11-07T15:17:49.861Z,86.40
2022-11-07T15:20:22.473Z,82.40
2022-11-07T15:22:49.349Z,79.30
2022-11-07T15:25:23.615Z,81.30
2022-11-07T15:27:50.419Z,77.60
2022-11-07T15:30:27.400Z,77.50
2022-11-07T15:32:54.419Z,78.60
2022-11-07T15:35:42.550Z,79.10
2022-11-07T15:38:19.951Z,72.30
2022-11-07T15:40:47.413Z,75.10
2022-11-07T15:43:14.370Z,73.10
2022-11-07T15:45:42.602Z,70.80
2022-11-07T15:48:14.537Z,68.00
2022-11-07T15:50:43.930Z,68.30
2022-11-07T15:53:24.326Z,65.60
2022-11-07T15:56:01.890Z,65.80
2022-11-07T15:58:30.270Z,62.30
2022-11-07T16:00:58.567Z,58.60
2022-11-07T16:03:26.398Z,58.90
2022-11-07T16:05:55.715Z,57.50
2022-11-07T16:08:23.989Z,56.40
2022-11-07T16:11:02.221Z,54.60
2022-11-07T16:13:29.505Z,52.20
2022-11-07T16:16:01.874Z,48.00
2022-11-07T16:18:42.542Z,51.70
2022-11-07T16:21:09.458Z,53.80
2022-11-07T16:23:36.211Z,53.20
2022-11-07T16:26:03.003Z,53.20
2022-11-07T16:28:34.390Z,53.30
2022-11-07T16:31:02.211Z,53.60
2022-11-07T16:33:28.951Z,53.20
2022-11-07T16:35:59.183Z,50.10
2022-11-07T16:38:29.196Z,52.50
2022-11-07T16:40:58.041Z,51.00
2022-11-07T16:43:24.747Z,50.10
2022-11-07T16:45:54.102Z,48.50
2022-11-07T16:48:27.210Z,47.80
2022-11-07T16:50:55.482Z,44.60
2022-11-07T16:53:23.432Z,44.80
2022-11-07T16:55:53.955Z,46.70
2022-11-07T16:58:28.407Z,44.60
2022-11-07T17:01:02.140Z,47.50
2022-11-07T17:03:29.381Z,50.30
2022-11-07T17:05:58.783Z,49.80
2022-11-07T17:08:41.131Z,49.80
2022-11-07T17:11:08.113Z,49.30
2022-11-07T17:13:34.863Z,46.60
2022-11-07T17:16:01.637Z,46.70
2022-11-07T17:18:28.510Z,47.30
2022-11-07T17:20:56.025Z,43.70
2022-11-07T17:23:30.191Z,47.70
2022-11-07T17:26:00.220Z,46.00
2022-11-07T17:28:27.122Z,49.60
2022-11-07T17:30:53.823Z,48.00
2022-11-07T17:33:20.523Z,51.50
2022-11-07T17:35:48.428Z,52.00
2022-11-07T17:38:17.240Z,53.00
2022-11-07T17:40:44.669Z,52.80
2022-11-07T17:43:11.372Z,52.50
2022-11-07T17:45:38.714Z,54.20
2022-11-07T17:48:05.718Z,52.60
2022-11-07T17:50:33.487Z,51.70
2022-11-07T17:53:00.304Z,52.60
2022-11-07T17:55:30.340Z,51.10
2022-11-07T17:57:57.152Z,37.10
2022-11-07T18:00:29.534Z,49.50
2022-11-07T18:02:56.530Z,53.80
2022-11-07T18:05:31.844Z,51.90
2022-11-07T18:08:07.333Z,48.70
2022-11-07T18:10:38.663Z,52.60
2022-11-07T18:13:05.718Z,54.30
2022-11-07T18:15:32.656Z,50.90
2022-11-07T18:17:59.372Z,54.20
2022-11-07T18:20:27.603Z,53.10
2022-11-07T18:22:54.339Z,54.80
2022-11-07T18:25:21.146Z,53.80
2022-11-07T18:27:48.406Z,53.10
2022-11-07T18:30:15.138Z,54.20
2022-11-07T18:32:42.656Z,54.10
2022-11-07T18:35:09.813Z,55.10
2022-11-07T18:37:36.581Z,52.50
2022-11-07T18:40:03.525Z,54.20
2022-11-07T18:42:30.965Z,52.40
2022-11-07T18:44:57.712Z,52.90
2022-11-07T18:47:24.425Z,52.70
2022-11-07T18:49:56.574Z,49.50
2022-11-07T18:52:24.135Z,49.00
2022-11-07T18:54:51.469Z,49.60
2022-11-07T18:57:18.174Z,50.40
2022-11-07T18:59:45.644Z,50.60
2022-11-07T19:02:12.427Z,50.50
2022-11-07T19:04:39.329Z,50.60
2022-11-07T19:07:06.061Z,51.00
2022-11-07T19:09:33.450Z,50.40
2022-11-07T19:12:00.884Z,51.10
2022-11-07T19:14:28.867Z,53.90
2022-11-07T19:16:56.728Z,55.70
2022-11-07T19:19:23.870Z,57.00
2022-11-07T19:21:51.039Z,54.90
2022-11-07T19:24:17.746Z,55.90
2022-11-07T19:26:44.459Z,56.50
2022-11-07T19:29:11.277Z,57.10
2022-11-07T19:31:38.542Z,58.20
2022-11-07T19:34:05.689Z,85.10
2022-11-07T19:36:33.254Z,59.30
2022-11-07T19:39:00.177Z,58.70
2022-11-07T19:41:26.933Z,84.30
2022-11-07T19:43:53.926Z,58.70
2022-11-07T19:46:24.780Z,58.40
2022-11-07T19:48:51.978Z,59.30
2022-11-07T19:51:22.728Z,59.00
2022-11-07T19:53:58.391Z,62.50
2022-11-07T19:56:28.107Z,61.90
2022-11-07T19:58:55.258Z,64.40
2022-11-07T20:01:27.968Z,63.40
2022-11-07T20:03:55.977Z,62.90
2022-11-07T20:06:26.274Z,66.50
2022-11-07T20:08:54.114Z,64.50
2022-11-07T20:11:23.705Z,64.60
2022-11-07T20:13:50.957Z,65.00
2022-11-07T20:16:18.188Z,65.00
2022-11-07T20:18:45.337Z,63.10
2022-11-07T20:21:15.458Z,61.10
2022-11-07T20:23:43.748Z,60.00
2022-11-07T20:26:14.269Z,60.00
2022-11-07T20:28:41.753Z,59.80
2022-11-07T20:31:09.983Z,60.60
2022-11-07T20:33:36.766Z,58.90
2022-11-07T20:36:06.199Z,58.40
2022-11-07T20:38:34.349Z,57.10
2022-11-07T20:41:02.655Z,55.60
2022-11-07T20:43:29.635Z,55.00
2022-11-07T20:45:56.652Z,53.60
2022-11-07T20:48:23.369Z,53.20
2022-11-07T20:50:50.126Z,52.60
2022-11-07T20:53:17.205Z,53.20
2022-11-07T20:55:44.313Z,53.20
2022-11-07T20:58:11.754Z,53.90
2022-11-07T21:00:40.626Z,52.10
2022-11-07T21:03:12.996Z,52.20
2022-11-07T21:05:39.710Z,53.20
2022-11-07T21:08:06.400Z,52.10
2022-11-07T21:10:33.112Z,51.40
2022-11-07T21:12:59.916Z,50.30
2022-11-07T21:15:26.710Z,48.00
2022-11-07T21:17:53.558Z,49.30
2022-11-07T21:20:20.251Z,48.10
2022-11-07T21:22:50.921Z,49.60
2022-11-07T21:25:17.916Z,48.80
2022-11-07T21:27:44.871Z,47.80
2022-11-07T21:30:12.931Z,47.30
2022-11-07T21:32:40.361Z,47.90
2022-11-07T21:35:07.493Z,48.30
2022-11-07T21:37:34.245Z,46.30
2022-11-07T21:40:00.896Z,46.80
2022-11-07T21:42:27.573Z,46.00
2022-11-07T21:44:54.333Z,45.40
2022-11-07T21:47:21.077Z,45.70
2022-11-07T21:49:49.732Z,46.20
2022-11-07T21:52:17.266Z,47.60
2022-11-07T21:54:47.029Z,46.10
2022-11-07T21:57:13.866Z,46.60
2022-11-07T21:59:40.556Z,45.60
2022-11-07T22:02:07.326Z,48.80
2022-11-07T22:04:35.198Z,45.50
2022-11-07T22:07:02.238Z,46.20
2022-11-07T22:09:28.995Z,46.70
2022-11-07T22:11:55.722Z,47.60
2022-11-07T22:14:22.984Z,47.90
2022-11-07T22:16:50.717Z,46.30
2022-11-07T22:19:18.721Z,46.60
2022-11-07T22:21:45.740Z,45.00
2022-11-07T22:24:12.453Z,43.60
2022-11-07T22:26:39.282Z,42.60
2022-11-07T22:29:05.988Z,42.60
2022-11-07T22:31:32.897Z,42.50
2022-11-07T22:34:00.644Z,41.60
2022-11-07T22:36:27.781Z,39.80
2022-11-07T22:38:57.261Z,41.20
2022-11-07T22:41:26.874Z,39.30
2022-11-07T22:43:54.046Z,41.00
2022-11-07T22:46:23.810Z,39.50
2022-11-07T22:48:51.271Z,37.60
2022-11-07T22:51:21.155Z,37.80
2022-11-07T22:53:48.661Z,38.90
2022-11-07T22:56:17.710Z,61.80
2022-11-07T22:58:46.148Z,41.60
2022-11-07T23:01:23.201Z,41.90
2022-11-07T23:03:50.679Z,41.80
2022-11-07T23:06:18.667Z,39.90
2022-11-07T23:08:45.803Z,39.20
2022-11-07T23:11:44.786Z,39.80
2022-11-07T23:14:04.813Z,41.00
2022-11-07T23:16:36.591Z,41.80
2022-11-07T23:19:06.101Z,42.90
2022-11-07T23:21:32.992Z,44.80
2022-11-07T23:24:00.520Z,45.70
2022-11-07T23:26:33.604Z,45.40
2022-11-07T23:29:10.430Z,48.50
2022-11-07T23:31:42.968Z,49.00
2022-11-07T23:34:09.752Z,50.40
2022-11-07T23:36:36.777Z,49.60
2022-11-07T23:39:08.279Z,48.30
2022-11-07T23:41:35.236Z,72.70
2022-11-07T23:44:02.735Z,48.00
2022-11-07T23:46:48.252Z,47.70
2022-11-07T23:49:34.383Z,47.50
2022-11-07T23:52:01.183Z,48.00
2022-11-07T23:54:46.656Z,48.70
2022-11-07T23:57:13.499Z,51.30
2022-11-07T23:59:58.783Z,51.60
